createdAt,value
2019-04-04T00:01:00.121Z,5.70
2019-04-04T00:03:29.260Z,5.70
2019-04-04T00:05:58.444Z,5.70
2019-04-04T00:08:30.878Z,5.60
2019-04-04T00:10:58.442Z,5.60
2019-04-04T00:13:27.585Z,5.50
2019-04-04T00:15:56.722Z,5.60
2019-04-04T00:18:27.370Z,5.50
2019-04-04T00:20:56.674Z,5.50
2019-04-04T00:23:25.762Z,5.50
2019-04-04T00:25:54.869Z,5.50
2019-04-04T00:28:23.968Z,5.50
2019-04-04T00:30:53.085Z,5.50
2019-04-04T00:33:23.829Z,5.40
2019-04-04T00:35:53.035Z,5.40
2019-04-04T00:38:22.155Z,5.40
2019-04-04T00:40:51.258Z,5.40
2019-04-04T00:43:21.512Z,5.40
2019-04-04T00:45:50.755Z,5.40
2019-04-04T00:48:19.864Z,5.40
2019-04-04T00:50:48.969Z,5.40
2019-04-04T00:53:18.086Z,5.40
2019-04-04T00:55:47.491Z,5.50
2019-04-04T00:58:16.675Z,5.50
2019-04-04T01:00:45.765Z,5.50
2019-04-04T01:03:14.866Z,5.50
2019-04-04T01:05:43.962Z,5.50
2019-04-04T01:08:13.124Z,5.60
2019-04-04T01:10:42.230Z,5.60
2019-04-04T01:13:11.325Z,5.60
2019-04-04T01:15:40.507Z,5.60
2019-04-04T01:18:09.621Z,5.60
2019-04-04T01:20:38.709Z,5.60
2019-04-04T01:23:07.799Z,5.60
2019-04-04T01:25:36.988Z,5.60
2019-04-04T01:28:08.236Z,5.60
2019-04-04T01:30:37.037Z,5.60
2019-04-04T01:33:06.126Z,5.60
2019-04-04T01:35:36.025Z,5.60
2019-04-04T01:38:05.323Z,5.60
2019-04-04T01:40:34.465Z,5.60
2019-04-04T01:43:03.592Z,5.60
2019-04-04T01:45:32.663Z,5.60
2019-04-04T01:48:01.863Z,5.60
2019-04-04T01:50:30.948Z,5.50
2019-04-04T01:53:00.056Z,5.50
2019-04-04T01:55:29.147Z,5.50
2019-04-04T01:57:58.289Z,5.50
2019-04-04T02:00:27.519Z,5.50
2019-04-04T02:02:56.603Z,5.50
2019-04-04T02:05:27.054Z,5.50
2019-04-04T02:07:56.723Z,5.50
2019-04-04T02:10:25.801Z,5.50
2019-04-04T02:12:54.879Z,5.40
2019-04-04T02:15:23.959Z,5.40
2019-04-04T02:17:53.467Z,5.40
2019-04-04T02:20:22.679Z,5.40
2019-04-04T02:22:51.753Z,5.40
2019-04-04T02:25:20.847Z,5.50
2019-04-04T02:27:49.938Z,5.50
2019-04-04T02:30:19.098Z,5.50
2019-04-04T02:32:48.194Z,5.50
2019-04-04T02:35:17.279Z,5.50
2019-04-04T02:37:46.349Z,5.50
2019-04-04T02:40:15.554Z,5.40
2019-04-04T02:42:44.676Z,5.40
2019-04-04T02:45:13.746Z,5.40
2019-04-04T02:47:42.829Z,5.40
2019-04-04T02:50:12.035Z,5.40
2019-04-04T02:52:41.123Z,5.40
2019-04-04T02:55:10.314Z,5.40
2019-04-04T02:57:42.227Z,5.40
2019-04-04T03:00:10.898Z,5.40
2019-04-04T03:02:39.978Z,5.40
2019-04-04T03:05:09.262Z,5.40
2019-04-04T03:07:38.550Z,5.40
2019-04-04T03:10:07.959Z,5.30
2019-04-04T03:12:37.068Z,5.40
2019-04-04T03:15:09.228Z,5.40
2019-04-04T03:17:37.664Z,5.30
2019-04-04T03:20:06.864Z,5.40
2019-04-04T03:22:35.941Z,5.30
2019-04-04T03:25:05.718Z,5.30
2019-04-04T03:27:34.828Z,5.30
2019-04-04T03:30:04.432Z,5.30
2019-04-04T03:32:33.552Z,5.20
2019-04-04T03:35:02.636Z,5.20
2019-04-04T03:37:31.707Z,5.20
2019-04-04T03:40:00.780Z,5.20
2019-04-04T03:42:29.964Z,5.20
2019-04-04T03:44:59.037Z,5.20
2019-04-04T03:47:28.132Z,5.20
2019-04-04T03:49:58.011Z,5.20
2019-04-04T03:52:27.330Z,5.20
2019-04-04T03:54:56.696Z,5.20
2019-04-04T03:57:25.889Z,5.20
2019-04-04T03:59:54.980Z,5.20
2019-04-04T04:02:24.064Z,5.20
2019-04-04T04:04:53.076Z,5.20
2019-04-04T04:07:22.149Z,5.20
2019-04-04T04:09:51.232Z,5.20
2019-04-04T04:12:20.312Z,5.20
2019-04-04T04:14:53.835Z,5.20
2019-04-04T04:17:20.250Z,5.30
2019-04-04T04:19:49.328Z,5.30
2019-04-04T04:22:19.456Z,5.30
2019-04-04T04:24:48.783Z,5.30
2019-04-04T04:27:17.858Z,5.40
2019-04-04T04:29:46.939Z,5.30
2019-04-04T04:32:16.051Z,5.40
2019-04-04T04:34:45.212Z,5.40
2019-04-04T04:37:14.301Z,5.40
2019-04-04T04:39:43.425Z,5.40
2019-04-04T04:42:12.569Z,5.40
2019-04-04T04:44:41.644Z,5.40
2019-04-04T04:47:10.751Z,5.40
2019-04-04T04:49:39.791Z,5.40
2019-04-04T04:52:08.859Z,5.40
2019-04-04T04:54:37.935Z,5.40
2019-04-04T04:57:07.115Z,5.40
2019-04-04T04:59:36.269Z,5.40
2019-04-04T05:02:05.467Z,5.40
2019-04-04T05:04:34.534Z,5.40
2019-04-04T05:07:07.163Z,5.50
2019-04-04T05:09:34.489Z,5.50
2019-04-04T05:12:03.649Z,5.60
2019-04-04T05:14:32.755Z,5.60
2019-04-04T05:17:01.920Z,5.60
2019-04-04T05:19:31.466Z,5.60
2019-04-04T05:22:00.778Z,5.60
2019-04-04T05:24:29.892Z,5.60
2019-04-04T05:26:59.040Z,5.60
2019-04-04T05:29:28.148Z,5.50
2019-04-04T05:31:57.210Z,5.60
2019-04-04T05:34:26.406Z,5.50
2019-04-04T05:36:55.526Z,5.50
2019-04-04T05:39:24.678Z,5.50
2019-04-04T05:41:53.806Z,5.50
2019-04-04T05:44:23.016Z,5.50
2019-04-04T05:46:52.195Z,5.50
2019-04-04T05:49:21.430Z,5.50
2019-04-04T05:51:50.553Z,5.50
2019-04-04T05:54:19.706Z,5.60
2019-04-04T05:56:49.636Z,5.60
2019-04-04T05:59:19.092Z,5.60
2019-04-04T06:01:48.223Z,5.60
2019-04-04T06:04:19.630Z,5.60
2019-04-04T06:06:48.295Z,5.60
2019-04-04T06:09:17.380Z,5.60
2019-04-04T06:11:48.655Z,5.60
2019-04-04T06:14:20.454Z,5.60
2019-04-04T06:16:48.447Z,5.60
2019-04-04T06:19:17.624Z,5.60
2019-04-04T06:21:47.888Z,5.60
2019-04-04T06:24:17.776Z,5.60
2019-04-04T06:26:47.008Z,5.60
2019-04-04T06:29:17.362Z,5.70
2019-04-04T06:31:47.367Z,5.70
2019-04-04T06:34:16.589Z,5.70
2019-04-04T06:36:46.999Z,5.70
2019-04-04T06:39:16.591Z,5.70
2019-04-04T06:41:45.662Z,5.80
2019-04-04T06:44:14.813Z,5.80
2019-04-04T06:46:43.904Z,5.80
2019-04-04T06:49:12.998Z,5.80
2019-04-04T06:51:42.184Z,5.90
2019-04-04T06:54:11.320Z,5.90
2019-04-04T06:56:40.462Z,5.90
2019-04-04T06:59:12.184Z,5.90
2019-04-04T07:01:40.618Z,5.90
2019-04-04T07:04:09.786Z,5.90
2019-04-04T07:06:41.719Z,6.00
2019-04-04T07:09:09.786Z,6.00
2019-04-04T07:11:38.950Z,6.00
2019-04-04T07:14:08.115Z,6.00
2019-04-04T07:16:37.424Z,6.00
2019-04-04T07:19:08.142Z,6.00
2019-04-04T07:21:37.398Z,6.00
2019-04-04T07:24:06.574Z,6.10
2019-04-04T07:26:35.674Z,6.10
2019-04-04T07:29:04.876Z,6.10
2019-04-04T07:31:38.017Z,6.10
2019-04-04T07:34:04.898Z,6.20
2019-04-04T07:36:34.080Z,6.20
2019-04-04T07:39:03.384Z,6.20
2019-04-04T07:41:32.544Z,6.30
2019-04-04T07:44:01.639Z,6.40
2019-04-04T07:46:30.685Z,6.50
2019-04-04T07:48:59.837Z,6.60
2019-04-04T07:51:30.231Z,6.60
2019-04-04T07:53:59.704Z,6.70
2019-04-04T07:56:28.767Z,6.70
2019-04-04T07:58:57.911Z,6.70
2019-04-04T08:01:27.007Z,6.70
2019-04-04T08:03:56.105Z,6.70
2019-04-04T08:06:25.217Z,6.70
2019-04-04T08:08:54.304Z,6.70
2019-04-04T08:11:23.396Z,6.80
2019-04-04T08:13:52.497Z,6.80
2019-04-04T08:16:21.475Z,6.70
2019-04-04T08:18:50.559Z,6.70
2019-04-04T08:21:19.727Z,6.70
2019-04-04T08:23:48.857Z,6.70
2019-04-04T08:26:18.098Z,6.80
2019-04-04T08:28:47.275Z,6.70
2019-04-04T08:31:16.418Z,6.80
2019-04-04T08:33:45.532Z,6.80
2019-04-04T08:36:14.699Z,6.80
2019-04-04T08:38:43.839Z,6.80
2019-04-04T08:41:12.980Z,6.80
2019-04-04T08:43:42.041Z,6.90
2019-04-04T08:46:11.108Z,6.80
2019-04-04T08:48:40.167Z,6.80
2019-04-04T08:51:09.289Z,6.70
2019-04-04T08:53:40.127Z,6.60
2019-04-04T08:56:09.149Z,6.60
2019-04-04T08:58:38.321Z,6.50
2019-04-04T09:01:07.394Z,6.50
2019-04-04T09:03:36.474Z,6.40
2019-04-04T09:06:05.566Z,6.40
2019-04-04T09:08:34.639Z,6.40
2019-04-04T09:11:03.697Z,6.40
2019-04-04T09:13:32.787Z,6.40
2019-04-04T09:16:01.893Z,6.40
2019-04-04T09:18:31.051Z,6.40
2019-04-04T09:21:00.147Z,6.50
2019-04-04T09:23:29.272Z,6.50
2019-04-04T09:26:05.579Z,6.60
2019-04-04T09:28:29.202Z,6.70
2019-04-04T09:30:58.335Z,6.80
2019-04-04T09:33:27.418Z,6.80
2019-04-04T09:35:56.613Z,6.70
2019-04-04T09:38:25.691Z,6.70
2019-04-04T09:40:54.807Z,6.70
2019-04-04T09:43:23.875Z,6.60
2019-04-04T09:45:53.077Z,6.70
2019-04-04T09:48:22.163Z,6.70
2019-04-04T09:50:51.249Z,6.60
2019-04-04T09:53:20.333Z,6.60
2019-04-04T09:55:49.530Z,6.60
2019-04-04T09:58:18.639Z,6.60
2019-04-04T10:00:50.223Z,6.60
2019-04-04T10:03:19.346Z,6.60
2019-04-04T10:05:48.509Z,6.50
2019-04-04T10:08:17.595Z,6.50
2019-04-04T10:10:46.597Z,6.50
2019-04-04T10:13:15.812Z,6.50
2019-04-04T10:15:44.996Z,6.40
2019-04-04T10:18:14.077Z,6.40
2019-04-04T10:20:43.270Z,6.30
2019-04-04T10:23:13.217Z,6.30
2019-04-04T10:25:42.505Z,6.30
2019-04-04T10:28:11.587Z,6.30
2019-04-04T10:30:40.732Z,6.30
2019-04-04T10:33:09.758Z,6.30
2019-04-04T10:35:38.817Z,6.30
2019-04-04T10:38:07.905Z,6.30
2019-04-04T10:40:36.975Z,6.40
2019-04-04T10:43:06.033Z,6.30
2019-04-04T10:45:35.125Z,6.40
2019-04-04T10:48:04.236Z,6.40
2019-04-04T10:50:33.439Z,6.30
2019-04-04T10:53:02.700Z,6.30
2019-04-04T10:55:31.757Z,6.30
2019-04-04T10:58:00.828Z,6.30
2019-04-04T11:00:30.005Z,6.30
2019-04-04T11:02:59.167Z,6.40
2019-04-04T11:05:28.335Z,6.50
2019-04-04T11:07:57.400Z,6.50
2019-04-04T11:10:26.544Z,6.50
2019-04-04T11:12:55.600Z,6.50
2019-04-04T11:15:24.691Z,6.40
2019-04-04T11:17:53.766Z,6.40
2019-04-04T11:20:22.848Z,6.40
2019-04-04T11:22:51.923Z,6.40
2019-04-04T11:25:21.036Z,6.30
2019-04-04T11:27:50.015Z,6.40
2019-04-04T11:30:19.233Z,6.40
2019-04-04T11:32:49.071Z,6.30
2019-04-04T11:35:18.382Z,6.30
2019-04-04T11:37:47.475Z,6.30
2019-04-04T11:40:16.576Z,6.20
2019-04-04T11:42:45.665Z,6.20
2019-04-04T11:45:14.730Z,6.20
2019-04-04T11:47:43.807Z,6.20
2019-04-04T11:50:12.899Z,6.20
2019-04-04T11:52:41.992Z,6.20
2019-04-04T11:55:11.162Z,6.10
2019-04-04T11:57:40.221Z,6.10
2019-04-04T12:00:11.100Z,6.10
2019-04-04T12:02:40.257Z,6.10
2019-04-04T12:05:09.417Z,6.10
2019-04-04T12:07:38.758Z,6.10
2019-04-04T12:10:08.271Z,6.10
2019-04-04T12:12:37.577Z,6.10
2019-04-04T12:15:06.983Z,6.20
2019-04-04T12:17:36.080Z,6.20
2019-04-04T12:20:06.614Z,6.20
2019-04-04T12:22:35.700Z,6.20
2019-04-04T12:25:05.127Z,6.20
2019-04-04T12:27:34.290Z,6.20
2019-04-04T12:30:03.482Z,6.20
2019-04-04T12:32:32.546Z,6.30
2019-04-04T12:35:01.549Z,6.30
2019-04-04T12:37:30.891Z,6.40
2019-04-04T12:39:59.994Z,6.50
2019-04-04T12:42:29.160Z,6.60
2019-04-04T12:44:58.516Z,6.70
2019-04-04T12:47:27.730Z,6.70
2019-04-04T12:49:56.820Z,6.80
2019-04-04T12:52:25.908Z,6.90
2019-04-04T12:54:55.016Z,7.00
2019-04-04T12:57:25.494Z,7.10
2019-04-04T12:59:54.570Z,7.20
2019-04-04T13:02:23.641Z,7.40
2019-04-04T13:04:52.733Z,7.50
2019-04-04T13:07:21.836Z,7.60
2019-04-04T13:09:50.942Z,7.80
2019-04-04T13:12:20.072Z,7.90
2019-04-04T13:14:49.169Z,8.00
2019-04-04T13:17:18.232Z,8.10
2019-04-04T13:19:47.484Z,8.10
2019-04-04T13:22:16.579Z,8.20
2019-04-04T13:24:45.655Z,8.20
2019-04-04T13:27:17.566Z,8.30
2019-04-04T13:29:45.649Z,8.30
2019-04-04T13:32:14.720Z,8.20
2019-04-04T13:34:43.808Z,8.30
2019-04-04T13:37:13.026Z,8.30
2019-04-04T13:39:42.148Z,8.20
2019-04-04T13:42:11.240Z,8.20
2019-04-04T13:44:40.386Z,8.20
2019-04-04T13:47:09.518Z,8.20
2019-04-04T13:49:38.605Z,8.40
2019-04-04T13:52:07.690Z,8.50
2019-04-04T13:54:36.746Z,8.80
2019-04-04T13:57:05.837Z,9.00
2019-04-04T13:59:34.929Z,9.20
2019-04-04T14:02:04.147Z,9.30
2019-04-04T14:04:33.245Z,9.40
2019-04-04T14:07:02.688Z,9.40
2019-04-04T14:09:32.201Z,9.40
2019-04-04T14:12:01.355Z,9.40
2019-04-04T14:14:30.436Z,9.40
2019-04-04T14:16:59.608Z,9.40
2019-04-04T14:19:31.458Z,9.40
2019-04-04T14:21:59.503Z,9.50
2019-04-04T14:24:28.609Z,9.50
2019-04-04T14:26:57.834Z,9.60
2019-04-04T14:29:28.078Z,9.70
2019-04-04T14:31:57.347Z,9.70
2019-04-04T14:34:26.549Z,9.60
2019-04-04T14:36:55.618Z,9.60
2019-04-04T14:39:24.711Z,9.50
2019-04-04T14:41:53.773Z,9.40
2019-04-04T14:44:22.964Z,9.40
2019-04-04T14:46:52.282Z,9.40
2019-04-04T14:49:21.393Z,9.30
2019-04-04T14:51:50.581Z,9.30
2019-04-04T14:54:19.671Z,9.20
2019-04-04T14:56:48.837Z,9.20
2019-04-04T14:59:17.958Z,9.20
2019-04-04T15:01:47.065Z,9.20
2019-04-04T15:04:16.146Z,9.00
2019-04-04T15:06:45.234Z,9.10
2019-04-04T15:09:14.447Z,9.10
2019-04-04T15:11:43.611Z,9.10
2019-04-04T15:14:13.186Z,9.10
2019-04-04T15:16:42.278Z,9.10
2019-04-04T15:19:11.447Z,9.20
2019-04-04T15:21:40.570Z,9.20
2019-04-04T15:24:09.652Z,9.20
2019-04-04T15:26:38.853Z,9.20
2019-04-04T15:29:07.958Z,9.20
2019-04-04T15:31:37.029Z,9.30
2019-04-04T15:34:06.212Z,9.30
2019-04-04T15:36:35.382Z,9.30
2019-04-04T15:39:06.141Z,9.20
2019-04-04T15:41:37.094Z,9.30
2019-04-04T15:44:06.080Z,9.30
2019-04-04T15:46:35.189Z,9.40
2019-04-04T15:49:04.325Z,9.70
2019-04-04T15:51:33.452Z,9.90
2019-04-04T15:54:02.603Z,10.10
2019-04-04T15:56:31.825Z,10.30
2019-04-04T15:59:00.919Z,10.40
2019-04-04T16:01:30.033Z,10.40
2019-04-04T16:03:59.123Z,10.40
2019-04-04T16:06:28.314Z,10.40
2019-04-04T16:08:57.452Z,10.30
2019-04-04T16:11:26.523Z,10.30
2019-04-04T16:13:55.729Z,10.30
2019-04-04T16:16:24.925Z,10.30
2019-04-04T16:18:54.042Z,10.20
2019-04-04T16:21:23.241Z,10.30
2019-04-04T16:23:52.358Z,10.20
2019-04-04T16:26:21.442Z,10.10
2019-04-04T16:28:50.526Z,10.10
2019-04-04T16:31:19.623Z,10.00
2019-04-04T16:33:48.724Z,9.90
2019-04-04T16:36:17.832Z,9.70
2019-04-04T16:38:46.908Z,9.50
2019-04-04T16:41:16.014Z,9.40
2019-04-04T16:43:45.107Z,9.30
2019-04-04T16:46:14.284Z,9.20
2019-04-04T16:48:43.375Z,9.10
2019-04-04T16:51:12.527Z,9.10
2019-04-04T16:53:41.694Z,9.00
2019-04-04T16:56:10.815Z,9.00
2019-04-04T16:58:39.928Z,8.90
2019-04-04T17:01:09.121Z,8.80
2019-04-04T17:03:38.242Z,8.70
2019-04-04T17:06:07.339Z,8.60
2019-04-04T17:08:36.437Z,8.50
2019-04-04T17:11:05.531Z,8.50
2019-04-04T17:13:34.708Z,8.40
2019-04-04T17:16:03.911Z,8.20
2019-04-04T17:18:33.008Z,8.20
2019-04-04T17:21:02.167Z,8.10
2019-04-04T17:23:31.254Z,8.00
2019-04-04T17:26:00.383Z,7.90
2019-04-04T17:28:29.616Z,7.90
2019-04-04T17:30:58.933Z,7.80
2019-04-04T17:33:28.030Z,7.70
2019-04-04T17:35:57.122Z,7.60
2019-04-04T17:38:26.197Z,7.60
2019-04-04T17:40:55.275Z,7.50
2019-04-04T17:43:24.378Z,7.40
2019-04-04T17:45:53.581Z,7.40
2019-04-04T17:48:22.657Z,7.30
2019-04-04T17:50:51.762Z,7.20
2019-04-04T17:53:21.394Z,7.20
2019-04-04T17:55:50.758Z,7.10
2019-04-04T17:58:19.986Z,7.00
2019-04-04T18:00:49.160Z,7.00
2019-04-04T18:03:18.469Z,7.00
2019-04-04T18:05:47.641Z,6.90
2019-04-04T18:08:16.808Z,6.90
2019-04-04T18:10:45.975Z,6.80
2019-04-04T18:13:15.109Z,6.80
2019-04-04T18:15:44.236Z,6.70
2019-04-04T18:18:13.380Z,6.70
2019-04-04T18:20:42.483Z,6.60
2019-04-04T18:23:11.584Z,6.50
2019-04-04T18:25:40.692Z,6.50
2019-04-04T18:28:09.814Z,6.40
2019-04-04T18:30:38.942Z,6.30
2019-04-04T18:33:08.418Z,6.30
2019-04-04T18:35:38.200Z,6.20
2019-04-04T18:38:07.871Z,6.20
2019-04-04T18:40:37.330Z,6.10
2019-04-04T18:43:06.430Z,6.10
2019-04-04T18:45:35.659Z,6.10
2019-04-04T18:48:04.846Z,6.00
2019-04-04T18:50:33.963Z,6.00
2019-04-04T18:53:03.063Z,5.80
2019-04-04T18:55:32.221Z,5.80
2019-04-04T18:58:01.346Z,5.70
2019-04-04T19:00:30.411Z,5.70
2019-04-04T19:02:59.572Z,5.60
2019-04-04T19:05:28.671Z,5.60
2019-04-04T19:07:57.759Z,5.40
2019-04-04T19:10:26.906Z,5.40
2019-04-04T19:13:05.135Z,5.40
2019-04-04T19:15:26.954Z,5.30
2019-04-04T19:17:56.027Z,5.30
2019-04-04T19:20:25.132Z,5.20
2019-04-04T19:22:54.249Z,5.20
2019-04-04T19:25:23.320Z,5.10
2019-04-04T19:27:52.427Z,5.10
2019-04-04T19:30:21.604Z,5.00
2019-04-04T19:32:50.723Z,5.00
2019-04-04T19:35:19.883Z,4.90
2019-04-04T19:37:59.524Z,4.90
2019-04-04T19:40:20.159Z,4.80
2019-04-04T19:42:49.232Z,4.80
2019-04-04T19:45:21.197Z,4.80
2019-04-04T19:47:49.428Z,4.70
2019-04-04T19:50:18.592Z,4.70
2019-04-04T19:52:47.767Z,4.60
2019-04-04T19:55:16.917Z,4.60
2019-04-04T19:57:46.062Z,4.60
2019-04-04T20:00:15.340Z,4.50
2019-04-04T20:02:44.413Z,4.50
2019-04-04T20:05:13.863Z,4.50
2019-04-04T20:07:42.951Z,4.50
2019-04-04T20:10:12.276Z,4.50
2019-04-04T20:12:41.415Z,4.50
2019-04-04T20:15:10.701Z,4.50
2019-04-04T20:17:39.987Z,4.50
2019-04-04T20:20:09.687Z,4.60
2019-04-04T20:22:38.815Z,4.60
2019-04-04T20:25:08.258Z,4.50
2019-04-04T20:27:37.359Z,4.60
2019-04-04T20:30:07.434Z,4.60
2019-04-04T20:32:36.499Z,4.60
2019-04-04T20:35:06.261Z,4.60
2019-04-04T20:37:35.388Z,4.60
2019-04-04T20:40:04.519Z,4.60
2019-04-04T20:42:33.610Z,4.60
2019-04-04T20:45:02.750Z,4.60
2019-04-04T20:47:33.792Z,4.60
2019-04-04T20:50:02.887Z,4.50
2019-04-04T20:52:31.972Z,4.60
2019-04-04T20:55:01.273Z,4.60
2019-04-04T20:57:30.354Z,4.60
2019-04-04T20:59:59.446Z,4.80
2019-04-04T21:02:28.537Z,4.60
2019-04-04T21:04:57.917Z,4.50
2019-04-04T21:07:27.004Z,4.50
2019-04-04T21:09:56.161Z,4.50
2019-04-04T21:12:25.292Z,4.40
2019-04-04T21:14:55.351Z,4.40
2019-04-04T21:17:24.465Z,4.40
2019-04-04T21:19:53.584Z,4.40
2019-04-04T21:22:27.765Z,4.40
2019-04-04T21:24:53.532Z,4.40
2019-04-04T21:27:22.719Z,4.40
2019-04-04T21:29:51.985Z,4.40
2019-04-04T21:32:21.666Z,4.40
2019-04-04T21:34:50.827Z,4.40
2019-04-04T21:37:19.913Z,4.30
2019-04-04T21:39:48.997Z,4.40
2019-04-04T21:42:18.105Z,4.30
2019-04-04T21:44:47.184Z,4.30
2019-04-04T21:47:16.300Z,4.20
2019-04-04T21:49:45.398Z,4.20
2019-04-04T21:52:15.074Z,4.20
2019-04-04T21:54:44.352Z,4.20
2019-04-04T21:57:13.465Z,4.20
2019-04-04T21:59:42.583Z,4.20
2019-04-04T22:02:11.779Z,4.10
2019-04-04T22:04:40.901Z,4.10
2019-04-04T22:07:09.999Z,4.10
2019-04-04T22:09:39.107Z,4.10
2019-04-04T22:12:08.296Z,4.10
2019-04-04T22:14:37.536Z,4.10
2019-04-04T22:17:06.643Z,4.10
2019-04-04T22:19:35.746Z,4.10
2019-04-04T22:22:04.856Z,4.00
2019-04-04T22:24:34.064Z,4.00
2019-04-04T22:27:03.189Z,4.00
2019-04-04T22:29:32.304Z,3.90
2019-04-04T22:32:01.388Z,3.90
2019-04-04T22:34:30.493Z,3.90
2019-04-04T22:36:59.582Z,3.80
2019-04-04T22:39:28.756Z,3.80
2019-04-04T22:41:57.875Z,3.80
2019-04-04T22:44:34.549Z,3.70
2019-04-04T22:46:57.781Z,3.70
2019-04-04T22:49:26.976Z,3.70
2019-04-04T22:51:56.074Z,3.70
2019-04-04T22:54:25.212Z,3.70
2019-04-04T22:56:54.309Z,3.70
2019-04-04T22:59:23.429Z,3.70
2019-04-04T23:01:52.511Z,3.60
2019-04-04T23:04:21.617Z,3.60
2019-04-04T23:06:50.721Z,3.60
2019-04-04T23:09:19.881Z,3.60
2019-04-04T23:11:48.963Z,3.60
2019-04-04T23:14:18.082Z,3.60
2019-04-04T23:16:47.213Z,3.60
2019-04-04T23:19:16.300Z,3.50
2019-04-04T23:21:45.415Z,3.50
2019-04-04T23:24:14.500Z,3.40
2019-04-04T23:26:43.615Z,3.40
2019-04-04T23:29:12.714Z,3.40
2019-04-04T23:31:41.829Z,3.30
2019-04-04T23:34:10.941Z,3.30
2019-04-04T23:36:40.070Z,3.30
2019-04-04T23:39:09.163Z,3.30
2019-04-04T23:41:38.244Z,3.30
2019-04-04T23:44:07.331Z,3.30
2019-04-04T23:46:36.411Z,3.30
2019-04-04T23:49:05.512Z,3.20
2019-04-04T23:51:34.598Z,3.20
2019-04-04T23:54:03.708Z,3.20
2019-04-04T23:56:32.891Z,3.20
2019-04-04T23:59:01.989Z,3.20
